Ridgely, Maryland
Current Conditions -  °F | °C
As of 12:17 AM on Tuesday 23 Dec 2014 (Local Time) from KESN Reporting Station
Haze Haze  
Wind Chill: 44°   Ceiling: 2900
Heat Index: 44°   Visibility: 5mi
Dew Point: 44°   Wind: 0mph
Humidity: 100%   Direction: NA
Pressure: 30.08"   Gusts: NA
Location:  38.95°N, 75.89°W
Report Text: KESN 230517Z AUTO 00000KT 5SM BR SCT007 SCT011 OVC029 07/07 A3008 RMK AO2 T00690069
Loading
Personal Weather Stations






























Interactive Weather Map New forecast layout! Learn more

10-Day Weather Forecast

Advertisements
Track Severe Weather on mobile